Time;durP1;ratioP1;P1;durP2;ratioP2;P2;SDS_P1;SDS_P2;PMS_P1;PMS_P2;Temp;Humidity;BMP_temperature;BMP_pressure;BME280_temperature;BME280_humidity;BME280_pressure;Samples;Min_cycle;Max_cycle;Signal;HPM_P1;HPM_P2
2022/09/21 00:01:15;;;;;;;;;;;6.60;99.90;;;;;;5066118;28;19920;-76
2022/09/21 00:03:42;;;;;;;;;;;6.60;99.90;;;;;;5066223;28;19936;-74
2022/09/21 00:06:09;;;;;;;;;;;6.50;99.90;;;;;;5065119;28;19924;-76
2022/09/21 00:08:37;;;;;;;;;;;6.50;99.90;;;;;;5065585;28;19987;-75
2022/09/21 00:11:04;;;;;;;;;;;6.50;99.90;;;;;;5065957;28;19984;-76
2022/09/21 00:13:32;;;;;;;;;;;6.50;99.90;;;;;;5065885;28;19927;-76
2022/09/21 00:15:58;;;;;;;;;;;6.50;99.90;;;;;;5065889;28;19921;-76
2022/09/21 00:18:26;;;;;;;;;;;6.50;99.90;;;;;;5066301;28;19920;-76
2022/09/21 00:20:52;;;;;;;;;;;6.50;99.90;;;;;;5054145;28;20105;-76
2022/09/21 00:23:19;;;;;;;;;;;6.50;99.90;;;;;;5055169;28;20213;-76
2022/09/21 00:25:47;;;;;;;;;;;6.40;99.90;;;;;;5065390;28;19987;-76
2022/09/21 00:28:14;;;;;;;;;;;6.40;99.90;;;;;;5065798;28;20098;-76
2022/09/21 00:30:40;;;;;;;;;;;6.40;99.90;;;;;;5065658;28;19927;-76
2022/09/21 00:33:07;;;;;;;;;;;6.40;99.90;;;;;;5065490;28;20222;-76
2022/09/21 00:35:33;;;;;;;;;;;6.30;99.90;;;;;;5060938;28;19987;-76
2022/09/21 00:38:00;;;;;;;;;;;6.30;99.90;;;;;;5065683;28;20064;-76
2022/09/21 00:40:27;;;;;;;;;;;6.20;99.90;;;;;;5065319;28;19928;-76
2022/09/21 00:43:08;;;;;;;;;;;6.20;99.90;;;;;;5065528;28;19927;-76
2022/09/21 00:45:37;;;;;;;;;;;6.10;99.90;;;;;;5065281;28;20199;-75
2022/09/21 00:48:03;;;;;;;;;;;6.10;99.90;;;;;;5064053;28;19925;-76
2022/09/21 00:50:30;;;;;;;;;;;6.10;99.90;;;;;;5045370;28;20235;-76
2022/09/21 00:52:58;;;;;;;;;;;6.10;99.90;;;;;;5045299;28;19927;-75
2022/09/21 00:55:26;;;;;;;;;;;6.10;99.90;;;;;;5045126;28;19921;-76
2022/09/21 00:57:54;;;;;;;;;;;6.10;99.90;;;;;;5045381;28;19921;-75
2022/09/21 01:00:21;;;;;;;;;;;6.00;99.90;;;;;;5045100;28;19992;-75
2022/09/21 01:02:50;;;;;;;;;;;6.00;99.90;;;;;;5053126;28;19920;-76
2022/09/21 01:05:16;;;;;;;;;;;6.00;99.90;;;;;;5065161;28;19943;-76
2022/09/21 01:07:45;;;;;;;;;;;6.00;99.90;;;;;;5064206;28;19995;-74
2022/09/21 01:10:13;;;;;;;;;;;5.90;99.90;;;;;;5065112;28;19987;-75
2022/09/21 01:12:46;;;;;;;;;;;6.00;99.90;;;;;;5065027;28;20280;-76
2022/09/21 01:15:16;;;;;;;;;;;5.90;99.90;;;;;;5063369;28;20228;-76
2022/09/21 01:17:46;;;;;;;;;;;5.90;99.90;;;;;;5064358;28;19952;-76
2022/09/21 01:20:34;;;;;;;;;;;5.90;99.90;;;;;;5064749;28;20216;-76
2022/09/21 01:23:16;;;;;;;;;;;5.90;99.90;;;;;;5064495;28;19921;-76
2022/09/21 01:25:52;;;;;;;;;;;5.90;99.90;;;;;;5062563;28;19987;-76
2022/09/21 01:28:28;;;;;;;;;;;5.80;99.90;;;;;;5064632;28;19921;-75
2022/09/21 01:30:58;;;;;;;;;;;5.80;99.90;;;;;;5046888;28;19993;-75
2022/09/21 01:33:27;;;;;;;;;;;5.80;99.90;;;;;;5061689;28;19927;-75
2022/09/21 01:35:56;;;;;;;;;;;5.80;99.90;;;;;;5045691;28;19984;-74
2022/09/21 01:38:25;;;;;;;;;;;5.70;99.90;;;;;;5044449;28;19931;-76
2022/09/21 01:40:53;;;;;;;;;;;5.80;99.90;;;;;;5044537;28;19921;-74
2022/09/21 01:43:24;;;;;;;;;;;5.70;99.90;;;;;;5052920;28;19924;-73
2022/09/21 01:45:53;;;;;;;;;;;5.80;99.90;;;;;;5053224;28;19927;-76
2022/09/21 01:48:23;;;;;;;;;;;5.70;99.90;;;;;;5044670;28;19921;-76
2022/09/21 01:50:51;;;;;;;;;;;5.70;99.90;;;;;;5045202;28;20283;-76
2022/09/21 01:53:19;;;;;;;;;;;5.70;99.90;;;;;;5044388;28;20235;-76
2022/09/21 01:55:50;;;;;;;;;;;5.80;99.90;;;;;;5061626;28;20220;-76
2022/09/21 01:58:20;;;;;;;;;;;5.80;99.90;;;;;;5065260;28;19966;-76
2022/09/21 02:00:48;;;;;;;;;;;5.70;99.90;;;;;;5063826;28;20119;-75
2022/09/21 02:03:18;;;;;;;;;;;5.80;99.90;;;;;;5067665;28;19976;-77
2022/09/21 02:05:46;;;;;;;;;;;5.70;99.90;;;;;;5069168;28;19975;-75
2022/09/21 02:08:13;;;;;;;;;;;5.80;99.90;;;;;;5071983;28;19921;-76
2022/09/21 02:10:42;;;;;;;;;;;5.70;99.90;;;;;;5067498;28;19992;-77
2022/09/21 02:13:09;;;;;;;;;;;5.70;99.90;;;;;;5064593;28;19971;-77
2022/09/21 02:15:40;;;;;;;;;;;5.70;99.90;;;;;;5064675;28;19927;-77
2022/09/21 02:18:12;;;;;;;;;;;5.70;99.90;;;;;;5064586;28;19921;-76
2022/09/21 02:20:43;;;;;;;;;;;5.70;99.90;;;;;;5064674;28;20023;-77
2022/09/21 02:23:14;;;;;;;;;;;5.70;99.90;;;;;;5064453;28;19921;-77
2022/09/21 02:25:44;;;;;;;;;;;5.70;99.90;;;;;;5064035;28;19920;-78
2022/09/21 02:28:13;;;;;;;;;;;5.60;99.90;;;;;;5059497;28;19927;-77
2022/09/21 02:30:41;;;;;;;;;;;5.60;99.90;;;;;;5044975;28;20107;-77
2022/09/21 02:33:10;;;;;;;;;;;5.60;99.90;;;;;;5044592;28;20018;-75
2022/09/21 02:35:41;;;;;;;;;;;5.50;99.90;;;;;;5044240;28;20128;-77
2022/09/21 02:38:10;;;;;;;;;;;5.50;99.90;;;;;;5044765;28;19928;-76
2022/09/21 02:40:40;;;;;;;;;;;5.50;99.90;;;;;;5061556;28;20245;-77
2022/09/21 02:43:09;;;;;;;;;;;5.50;99.90;;;;;;5063476;28;19942;-77
2022/09/21 02:45:40;;;;;;;;;;;5.50;99.90;;;;;;5064231;28;20123;-77
2022/09/21 02:48:08;;;;;;;;;;;5.40;99.90;;;;;;5064413;28;19987;-78
2022/09/21 02:50:36;;;;;;;;;;;5.40;99.90;;;;;;5064284;28;19927;-77
2022/09/21 02:53:04;;;;;;;;;;;5.40;99.90;;;;;;5064140;28;19927;-77
2022/09/21 02:55:32;;;;;;;;;;;5.30;99.90;;;;;;5063698;28;19927;-77
2022/09/21 02:58:02;;;;;;;;;;;5.40;99.90;;;;;;5048203;28;19928;-74
2022/09/21 03:00:28;;;;;;;;;;;5.40;99.90;;;;;;5064048;28;19921;-77
2022/09/21 03:02:55;;;;;;;;;;;5.30;99.90;;;;;;5063915;28;19927;-77
2022/09/21 03:05:22;;;;;;;;;;;5.30;99.90;;;;;;5063940;28;19921;-77
2022/09/21 03:07:48;;;;;;;;;;;5.20;99.90;;;;;;5063855;28;19987;-76
2022/09/21 03:10:15;;;;;;;;;;;5.20;99.90;;;;;;5061364;28;19921;-77
2022/09/21 03:12:43;;;;;;;;;;;5.20;99.90;;;;;;5057832;28;20215;-77
2022/09/21 03:15:11;;;;;;;;;;;5.20;99.90;;;;;;5043628;28;19988;-77
2022/09/21 03:17:38;;;;;;;;;;;5.10;99.90;;;;;;5044248;28;19921;-77
2022/09/21 03:20:05;;;;;;;;;;;5.10;99.90;;;;;;5043911;28;19948;-76
2022/09/21 03:22:31;;;;;;;;;;;5.10;99.90;;;;;;5043692;28;19993;-77
2022/09/21 03:24:58;;;;;;;;;;;5.10;99.90;;;;;;5048914;28;20259;-77
2022/09/21 03:27:25;;;;;;;;;;;5.10;99.90;;;;;;5051048;28;20152;-77
2022/09/21 03:29:51;;;;;;;;;;;5.10;99.90;;;;;;5045139;28;19925;-77
2022/09/21 03:32:20;;;;;;;;;;;5.10;99.90;;;;;;5047714;28;19921;-77
2022/09/21 03:34:46;;;;;;;;;;;5.00;99.90;;;;;;5047513;28;19921;-77
2022/09/21 03:37:13;;;;;;;;;;;5.00;99.90;;;;;;5047538;28;19984;-77
2022/09/21 03:39:39;;;;;;;;;;;5.00;99.90;;;;;;5052956;28;20268;-77
2022/09/21 03:42:08;;;;;;;;;;;4.90;99.90;;;;;;5053696;28;19995;-76
2022/09/21 03:44:36;;;;;;;;;;;4.90;99.90;;;;;;5047247;28;19921;-76
2022/09/21 03:47:05;;;;;;;;;;;4.80;99.90;;;;;;5047357;28;19987;-78
2022/09/21 03:49:33;;;;;;;;;;;4.80;99.90;;;;;;5047529;28;19944;-77
2022/09/21 03:52:00;;;;;;;;;;;4.80;99.90;;;;;;5047253;28;20205;-77
2022/09/21 03:54:27;;;;;;;;;;;4.80;99.90;;;;;;5058457;28;20201;-77
2022/09/21 03:56:53;;;;;;;;;;;4.80;99.90;;;;;;5062098;28;19984;-77
2022/09/21 03:59:20;;;;;;;;;;;4.80;99.90;;;;;;5067397;28;20167;-77
2022/09/21 04:01:47;;;;;;;;;;;4.80;99.90;;;;;;5067263;28;19975;-77
2022/09/21 04:04:15;;;;;;;;;;;4.80;99.90;;;;;;5066957;28;20003;-76
2022/09/21 04:06:44;;;;;;;;;;;4.80;99.90;;;;;;5066566;28;20260;-77
2022/09/21 04:09:11;;;;;;;;;;;4.80;99.90;;;;;;5066873;28;20224;-77
2022/09/21 04:11:38;;;;;;;;;;;4.80;99.90;;;;;;5066541;28;19988;-77
2022/09/21 04:14:06;;;;;;;;;;;4.80;99.90;;;;;;5065868;28;19959;-77
2022/09/21 04:16:33;;;;;;;;;;;4.80;99.90;;;;;;5056632;28;19927;-77
2022/09/21 04:19:00;;;;;;;;;;;4.80;99.90;;;;;;5047088;28;20255;-77
2022/09/21 04:21:26;;;;;;;;;;;4.70;99.90;;;;;;5054797;28;19971;-76
2022/09/21 04:24:11;;;;;;;;;;;4.70;99.90;;;;;;5078380;28;20111;-77
2022/09/21 04:26:39;;;;;;;;;;;4.70;99.90;;;;;;5055547;28;19921;-77
2022/09/21 04:29:06;;;;;;;;;;;4.50;99.90;;;;;;5065827;28;19924;-76
2022/09/21 04:31:33;;;;;;;;;;;4.40;99.90;;;;;;5066894;28;19921;-76
2022/09/21 04:33:59;;;;;;;;;;;4.30;99.90;;;;;;5066529;28;19920;-77
2022/09/21 04:36:31;;;;;;;;;;;4.30;99.90;;;;;;5066067;28;19987;-73
2022/09/21 04:38:58;;;;;;;;;;;4.30;99.90;;;;;;5070775;28;19921;-72
2022/09/21 04:41:26;;;;;;;;;;;4.30;99.90;;;;;;5070742;28;20219;-75
2022/09/21 04:43:52;;;;;;;;;;;4.30;99.90;;;;;;5077528;28;19920;-76
2022/09/21 04:46:20;;;;;;;;;;;4.30;99.90;;;;;;5085635;28;19920;-76
2022/09/21 04:48:46;;;;;;;;;;;4.30;99.90;;;;;;5080837;28;19927;-76
2022/09/21 04:51:14;;;;;;;;;;;4.30;99.90;;;;;;5085624;28;19979;-75
2022/09/21 04:53:41;;;;;;;;;;;4.30;99.90;;;;;;5068078;28;20279;-76
2022/09/21 04:56:09;;;;;;;;;;;4.20;99.90;;;;;;5064590;28;20216;-76
2022/09/21 04:58:36;;;;;;;;;;;4.30;99.90;;;;;;5064582;28;19921;-71
2022/09/21 05:01:05;;;;;;;;;;;4.20;99.90;;;;;;5062649;28;19992;-74
2022/09/21 05:03:31;;;;;;;;;;;4.20;99.90;;;;;;5064985;28;19921;-74
2022/09/21 05:05:58;;;;;;;;;;;4.20;99.90;;;;;;5064670;28;19952;-75
2022/09/21 05:11:06;;;;;;;;;;;4.20;99.90;;;;;;5064661;28;19952;-75
2022/09/21 05:13:33;;;;;;;;;;;4.20;99.90;;;;;;5065747;28;19963;-76
2022/09/21 05:16:01;;;;;;;;;;;4.20;99.90;;;;;;5064961;28;20161;-74
2022/09/21 05:18:30;;;;;;;;;;;4.20;99.90;;;;;;5082492;28;19956;-73
2022/09/21 05:20:57;;;;;;;;;;;4.20;99.90;;;;;;5085210;28;19920;-75
2022/09/21 05:23:25;;;;;;;;;;;4.20;99.90;;;;;;5077713;28;19921;-72
2022/09/21 05:25:51;;;;;;;;;;;4.30;99.90;;;;;;5064775;28;19921;-73
2022/09/21 05:28:18;;;;;;;;;;;4.30;99.90;;;;;;5063734;28;19979;-74
2022/09/21 05:30:46;;;;;;;;;;;4.30;99.90;;;;;;5063055;28;19988;-73
2022/09/21 05:33:16;;;;;;;;;;;4.30;99.90;;;;;;5063169;28;19921;-74
2022/09/21 05:35:45;;;;;;;;;;;4.30;99.90;;;;;;5056783;28;20230;-73
2022/09/21 05:38:13;;;;;;;;;;;4.30;99.90;;;;;;5055307;28;19921;-73
2022/09/21 05:40:40;;;;;;;;;;;4.30;99.90;;;;;;5043266;28;19921;-74
2022/09/21 05:43:08;;;;;;;;;;;4.40;99.90;;;;;;5044307;28;19921;-73
2022/09/21 05:45:37;;;;;;;;;;;4.40;99.90;;;;;;5043736;28;19921;-71
2022/09/21 05:48:11;;;;;;;;;;;4.40;99.90;;;;;;5052018;28;20204;-73
2022/09/21 05:50:47;;;;;;;;;;;4.40;99.90;;;;;;5064187;28;19921;-73
2022/09/21 05:53:21;;;;;;;;;;;4.40;99.90;;;;;;5051468;28;19927;-74
2022/09/21 05:55:52;;;;;;;;;;;4.40;99.90;;;;;;5043955;28;19921;-73
2022/09/21 05:58:21;;;;;;;;;;;4.40;99.90;;;;;;5044206;28;19980;-76
2022/09/21 06:00:53;;;;;;;;;;;4.50;99.90;;;;;;5044228;28;19988;-73
2022/09/21 06:03:26;;;;;;;;;;;4.50;99.90;;;;;;5051954;28;20002;-73
2022/09/21 06:05:54;;;;;;;;;;;4.60;99.90;;;;;;5060334;28;19927;-73
2022/09/21 06:08:21;;;;;;;;;;;4.60;99.90;;;;;;5044091;28;19988;-72
2022/09/21 06:10:48;;;;;;;;;;;4.60;99.90;;;;;;5043813;28;20201;-72
2022/09/21 06:13:14;;;;;;;;;;;4.70;99.90;;;;;;5043622;28;20108;-72
2022/09/21 06:15:41;;;;;;;;;;;4.70;99.90;;;;;;5054742;28;19920;-72
2022/09/21 06:18:08;;;;;;;;;;;4.80;99.90;;;;;;5063471;28;19928;-72
2022/09/21 06:20:35;;;;;;;;;;;4.80;99.90;;;;;;5060452;28;19975;-72
2022/09/21 06:23:03;;;;;;;;;;;4.80;99.90;;;;;;5043510;28;19987;-72
2022/09/21 06:25:30;;;;;;;;;;;4.80;99.90;;;;;;5043286;28;19927;-71
2022/09/21 06:28:01;;;;;;;;;;;4.70;99.90;;;;;;5043616;28;20231;-72
2022/09/21 06:30:27;;;;;;;;;;;4.70;99.90;;;;;;5062289;28;19935;-72
2022/09/21 06:32:54;;;;;;;;;;;4.70;99.90;;;;;;5063500;28;20164;-72
2022/09/21 06:35:20;;;;;;;;;;;4.70;99.90;;;;;;5062563;28;19921;-72
2022/09/21 06:37:47;;;;;;;;;;;4.70;99.90;;;;;;5063722;28;20000;-73
2022/09/21 06:40:15;;;;;;;;;;;4.80;99.90;;;;;;5062665;28;20251;-72
2022/09/21 06:42:42;;;;;;;;;;;4.80;99.90;;;;;;5063065;28;19955;-71
2022/09/21 06:45:09;;;;;;;;;;;4.90;99.90;;;;;;5062772;28;19921;-72
2022/09/21 06:47:35;;;;;;;;;;;4.90;99.90;;;;;;5062385;28;20003;-73
2022/09/21 06:50:02;;;;;;;;;;;5.00;99.90;;;;;;5062827;28;20000;-71
2022/09/21 06:52:29;;;;;;;;;;;5.00;99.90;;;;;;5063109;28;19925;-73
2022/09/21 06:54:55;;;;;;;;;;;5.20;99.90;;;;;;5062957;28;19927;-72
2022/09/21 06:57:23;;;;;;;;;;;5.20;99.90;;;;;;5061973;28;20216;-73
2022/09/21 06:59:50;;;;;;;;;;;5.30;99.90;;;;;;5063313;28;19921;-73
2022/09/21 07:02:17;;;;;;;;;;;5.40;99.90;;;;;;5063049;28;20259;-73
2022/09/21 07:04:44;;;;;;;;;;;5.40;99.90;;;;;;5046979;28;19927;-71
2022/09/21 07:07:10;;;;;;;;;;;5.50;99.90;;;;;;5066950;28;19983;-73
2022/09/21 07:09:37;;;;;;;;;;;5.60;99.90;;;;;;5067329;28;19952;-72
2022/09/21 07:12:06;;;;;;;;;;;5.70;99.90;;;;;;5067061;28;19927;-73
2022/09/21 07:14:34;;;;;;;;;;;5.80;99.90;;;;;;5067034;28;19988;-72
2022/09/21 07:17:01;;;;;;;;;;;5.90;99.90;;;;;;5067111;28;19984;-71
2022/09/21 07:19:28;;;;;;;;;;;5.90;99.90;;;;;;5065261;28;19927;-73
2022/09/21 07:21:54;;;;;;;;;;;6.00;99.90;;;;;;5067265;28;20184;-73
2022/09/21 07:24:21;;;;;;;;;;;6.10;99.90;;;;;;5066844;28;20032;-71
2022/09/21 07:26:48;;;;;;;;;;;6.10;99.90;;;;;;5066521;28;20028;-73
2022/09/21 07:29:14;;;;;;;;;;;6.20;99.90;;;;;;5066122;28;20188;-73
2022/09/21 07:31:44;;;;;;;;;;;6.30;99.90;;;;;;5061967;28;19984;-73
2022/09/21 07:34:11;;;;;;;;;;;6.40;99.90;;;;;;5059700;28;19959;-73
2022/09/21 07:36:37;;;;;;;;;;;6.40;99.90;;;;;;5066415;28;19971;-73
2022/09/21 07:39:04;;;;;;;;;;;6.40;99.90;;;;;;5066585;28;19987;-72
2022/09/21 07:41:31;;;;;;;;;;;6.50;99.90;;;;;;5066615;28;19924;-73
2022/09/21 07:43:57;;;;;;;;;;;6.50;99.90;;;;;;5066481;28;20116;-73
2022/09/21 07:46:24;;;;;;;;;;;6.50;99.90;;;;;;5061242;28;19989;-73
2022/09/21 07:48:54;;;;;;;;;;;6.60;99.90;;;;;;5046535;28;19927;-73
2022/09/21 07:51:21;;;;;;;;;;;6.60;99.90;;;;;;5046633;28;19921;-73
2022/09/21 07:53:48;;;;;;;;;;;6.70;99.90;;;;;;5046304;28;19936;-72
2022/09/21 07:56:16;;;;;;;;;;;6.80;99.90;;;;;;5059821;28;20252;-73
2022/09/21 08:01:27;;;;;;;;;;;7.00;99.90;;;;;;5049995;28;19999;-73
2022/09/21 08:03:56;;;;;;;;;;;7.10;99.90;;;;;;5062645;28;19927;-73
2022/09/21 08:06:24;;;;;;;;;;;7.10;99.90;;;;;;5066037;28;19921;-73
2022/09/21 08:08:51;;;;;;;;;;;7.20;99.90;;;;;;5066142;28;19927;-72
2022/09/21 08:11:18;;;;;;;;;;;7.20;99.90;;;;;;5065337;28;19966;-72
2022/09/21 08:13:45;;;;;;;;;;;7.30;99.90;;;;;;5065970;28;19987;-72
2022/09/21 08:16:11;;;;;;;;;;;7.30;99.90;;;;;;5051461;28;20058;-73
2022/09/21 08:18:38;;;;;;;;;;;7.40;99.90;;;;;;5065962;28;19929;-73
2022/09/21 08:21:08;;;;;;;;;;;7.40;99.90;;;;;;5066042;28;19921;-73
2022/09/21 08:23:34;;;;;;;;;;;7.40;99.90;;;;;;5065551;28;20105;-73
2022/09/21 08:26:02;;;;;;;;;;;7.50;99.90;;;;;;5065552;28;19921;-72
2022/09/21 08:28:29;;;;;;;;;;;7.60;99.90;;;;;;5063530;28;19927;-73
2022/09/21 08:30:58;;;;;;;;;;;7.60;99.90;;;;;;5062766;28;20259;-73
2022/09/21 08:33:26;;;;;;;;;;;7.70;99.90;;;;;;5065862;28;19937;-73
2022/09/21 08:35:53;;;;;;;;;;;7.80;99.90;;;;;;5064781;28;20204;-73
2022/09/21 08:38:21;;;;;;;;;;;7.80;99.90;;;;;;5065779;28;19921;-73
2022/09/21 08:40:48;;;;;;;;;;;7.90;99.90;;;;;;5065745;28;19921;-72
2022/09/21 08:43:16;;;;;;;;;;;7.90;99.90;;;;;;5065680;28;19920;-73
2022/09/21 08:45:44;;;;;;;;;;;8.00;99.90;;;;;;5064791;28;19943;-73
2022/09/21 08:48:13;;;;;;;;;;;8.00;99.90;;;;;;5064755;28;19987;-74
2022/09/21 08:50:42;;;;;;;;;;;8.00;99.90;;;;;;5065509;28;19987;-73
2022/09/21 08:53:11;;;;;;;;;;;8.10;99.90;;;;;;5065308;28;19921;-73
2022/09/21 08:55:39;;;;;;;;;;;8.20;99.90;;;;;;5064960;28;19927;-73
2022/09/21 08:58:13;;;;;;;;;;;8.20;99.90;;;;;;5065196;28;19921;-73
2022/09/21 09:00:41;;;;;;;;;;;8.30;99.90;;;;;;5065044;28;19921;-73
2022/09/21 09:03:17;;;;;;;;;;;8.40;99.90;;;;;;5064512;28;19920;-74
2022/09/21 09:05:47;;;;;;;;;;;8.50;99.90;;;;;;5064839;28;19921;-73
2022/09/21 09:08:31;;;;;;;;;;;8.60;99.90;;;;;;5065141;28;20204;-73
2022/09/21 09:11:06;;;;;;;;;;;8.70;99.90;;;;;;5065452;28;19983;-73
2022/09/21 09:13:40;;;;;;;;;;;8.90;99.90;;;;;;5063990;28;19921;-73
2022/09/21 09:16:11;;;;;;;;;;;8.90;99.90;;;;;;5064638;28;19921;-73
2022/09/21 09:18:40;;;;;;;;;;;9.00;99.90;;;;;;5064567;28;19927;-73
2022/09/21 09:21:11;;;;;;;;;;;9.10;99.90;;;;;;5065229;28;19984;-73
2022/09/21 09:23:40;;;;;;;;;;;9.30;99.90;;;;;;5064858;28;19943;-73
2022/09/21 09:26:10;;;;;;;;;;;9.30;99.90;;;;;;5063997;28;19921;-73
2022/09/21 09:28:41;;;;;;;;;;;9.40;99.90;;;;;;5063668;28;19921;-73
2022/09/21 09:31:12;;;;;;;;;;;9.50;99.90;;;;;;5064318;28;19928;-73
2022/09/21 09:33:44;;;;;;;;;;;9.60;99.90;;;;;;5064460;28;20223;-72
2022/09/21 09:36:12;;;;;;;;;;;9.70;99.90;;;;;;5063738;28;19920;-72
2022/09/21 09:38:40;;;;;;;;;;;9.90;99.90;;;;;;5064550;28;19927;-72
2022/09/21 09:41:18;;;;;;;;;;;10.00;99.90;;;;;;5064537;28;19921;-73
2022/09/21 09:43:52;;;;;;;;;;;10.10;99.90;;;;;;5064337;28;19927;-73
2022/09/21 09:46:21;;;;;;;;;;;10.30;99.90;;;;;;5063077;28;20288;-73
2022/09/21 09:48:54;;;;;;;;;;;10.50;99.90;;;;;;5064201;28;20224;-73
2022/09/21 09:51:21;;;;;;;;;;;10.60;99.90;;;;;;5064125;28;19921;-72
2022/09/21 09:53:48;;;;;;;;;;;10.80;99.90;;;;;;5064271;28;19951;-73
2022/09/21 09:56:18;;;;;;;;;;;10.90;99.90;;;;;;5063832;28;19983;-73
2022/09/21 09:58:48;;;;;;;;;;;11.10;99.90;;;;;;5059663;28;19921;-73
2022/09/21 10:01:34;;;;;;;;;;;11.20;99.90;;;;;;5063497;28;19927;-72
2022/09/21 10:04:04;;;;;;;;;;;11.40;99.90;;;;;;5063779;28;19972;-73
2022/09/21 10:06:31;;;;;;;;;;;11.50;99.90;;;;;;5063217;28;19921;-73
2022/09/21 10:08:58;;;;;;;;;;;11.60;99.90;;;;;;5063545;28;19920;-73
2022/09/21 10:11:34;;;;;;;;;;;11.80;99.90;;;;;;5063752;28;19985;-74
2022/09/21 10:14:07;;;;;;;;;;;11.90;99.90;;;;;;5062909;28;20227;-74
2022/09/21 10:16:40;;;;;;;;;;;12.00;99.90;;;;;;5062913;28;20281;-73
2022/09/21 10:19:13;;;;;;;;;;;12.10;99.90;;;;;;5063688;28;19927;-73
2022/09/21 10:21:42;;;;;;;;;;;12.20;99.90;;;;;;5063573;28;19959;-73
2022/09/21 10:24:15;;;;;;;;;;;12.40;99.90;;;;;;5063692;28;19921;-73
2022/09/21 10:26:44;;;;;;;;;;;12.40;99.90;;;;;;5043344;28;20164;-73
2022/09/21 10:29:17;;;;;;;;;;;12.50;99.90;;;;;;5044372;28;19921;-73
2022/09/21 10:31:53;;;;;;;;;;;12.60;99.90;;;;;;5053484;28;19995;-71
2022/09/21 10:34:20;;;;;;;;;;;12.70;99.90;;;;;;5063513;28;19936;-73
2022/09/21 10:36:50;;;;;;;;;;;12.80;99.90;;;;;;5063048;28;19987;-73
2022/09/21 10:39:24;;;;;;;;;;;12.90;99.90;;;;;;5063262;28;19925;-74
2022/09/21 10:41:53;;;;;;;;;;;13.00;99.90;;;;;;5063374;28;20151;-74
2022/09/21 10:44:21;;;;;;;;;;;13.20;99.90;;;;;;5052733;28;19921;-74
2022/09/21 10:46:48;;;;;;;;;;;13.30;99.90;;;;;;5053506;28;20212;-74
2022/09/21 10:49:16;;;;;;;;;;;13.50;99.90;;;;;;5063564;28;19927;-72
2022/09/21 10:51:45;;;;;;;;;;;13.60;99.90;;;;;;5063393;28;19987;-73
2022/09/21 10:54:16;;;;;;;;;;;13.80;99.90;;;;;;5063170;28;19943;-74
2022/09/21 10:56:50;;;;;;;;;;;13.90;99.90;;;;;;5062936;28;19927;-73
2022/09/21 10:59:22;;;;;;;;;;;14.00;99.90;;;;;;5043167;28;19960;-74
2022/09/21 11:01:49;;;;;;;;;;;14.10;99.90;;;;;;5062627;28;19983;-75
2022/09/21 11:04:19;;;;;;;;;;;14.30;99.90;;;;;;5063061;28;19921;-73
2022/09/21 11:06:48;;;;;;;;;;;14.40;99.90;;;;;;5062655;28;20258;-73
2022/09/21 11:09:17;;;;;;;;;;;14.50;99.90;;;;;;5057761;28;19921;-73
2022/09/21 11:11:48;;;;;;;;;;;14.60;99.90;;;;;;5042879;28;19921;-73
2022/09/21 11:14:19;;;;;;;;;;;14.90;99.90;;;;;;5043205;28;19927;-73
2022/09/21 11:16:51;;;;;;;;;;;15.00;99.90;;;;;;5051060;28;20116;-73
2022/09/21 11:19:21;;;;;;;;;;;15.10;99.90;;;;;;5054118;28;20031;-74
2022/09/21 11:21:52;;;;;;;;;;;15.30;99.90;;;;;;5062922;28;19921;-75
2022/09/21 11:24:22;;;;;;;;;;;15.40;99.90;;;;;;5048038;28;19997;-74
2022/09/21 11:26:53;;;;;;;;;;;15.30;99.90;;;;;;5055359;28;20230;-75
2022/09/21 11:29:23;;;;;;;;;;;15.40;99.90;;;;;;5063072;28;19924;-75
2022/09/21 11:32:08;;;;;;;;;;;15.30;99.90;;;;;;5062601;28;20190;-74
2022/09/21 11:34:53;;;;;;;;;;;15.30;99.90;;;;;;5080003;22;19921;-69
2022/09/21 11:37:28;;;;;;;;;;;15.00;99.90;;;;;;5072490;28;19927;-69
2022/09/21 11:40:01;;;;;;;;;;;14.70;99.90;;;;;;5082944;28;19959;-69
2022/09/21 11:42:41;;;;;;;;;;;14.50;99.90;;;;;;5082794;28;19926;-69
2022/09/21 11:45:13;;;;;;;;;;;14.60;99.90;;;;;;5073017;28;19921;-69
2022/09/21 11:47:46;;;;;;;;;;;14.70;99.90;;;;;;5062440;28;19983;-69
2022/09/21 11:50:24;;;;;;;;;;;14.70;99.90;;;;;;5062947;28;19921;-69
2022/09/21 11:52:54;;;;;;;;;;;14.90;99.90;;;;;;5065968;28;19928;-68
2022/09/21 11:55:45;;;;;;;;;;;15.10;99.90;;;;;;5065623;28;19921;-68
2022/09/21 11:58:17;;;;;;;;;;;15.30;99.90;;;;;;5010341;28;19928;-69
2022/09/21 12:00:48;;;;;;;;;;;15.50;99.90;;;;;;5066192;28;19932;-69
2022/09/21 12:03:35;;;;;;;;;;;15.50;99.90;;;;;;5066294;28;19921;-69
2022/09/21 12:06:10;;;;;;;;;;;15.50;99.90;;;;;;5065075;28;19961;-69
2022/09/21 12:08:45;;;;;;;;;;;15.70;99.90;;;;;;5066249;28;19920;-69
2022/09/21 12:11:16;;;;;;;;;;;15.90;99.90;;;;;;5066357;28;20095;-69
2022/09/21 12:13:49;;;;;;;;;;;15.90;99.90;;;;;;5065917;28;19921;-69
2022/09/21 12:16:19;;;;;;;;;;;15.80;99.90;;;;;;5065345;28;19941;-69
2022/09/21 12:18:53;;;;;;;;;;;15.80;99.90;;;;;;5065769;28;19920;-69
2022/09/21 12:21:22;;;;;;;;;;;15.60;99.90;;;;;;5065041;28;19927;-69
2022/09/21 12:23:50;;;;;;;;;;;15.30;99.90;;;;;;5064044;28;19959;-69
2022/09/21 12:26:20;;;;;;;;;;;15.20;99.90;;;;;;5064805;28;19996;-69
2022/09/21 12:28:49;;;;;;;;;;;15.20;99.90;;;;;;5065516;28;20212;-69
2022/09/21 12:31:18;;;;;;;;;;;15.20;99.90;;;;;;5064819;28;19927;-68
2022/09/21 12:33:47;;;;;;;;;;;15.00;99.90;;;;;;5065281;28;20010;-68
2022/09/21 12:36:17;;;;;;;;;;;14.70;99.90;;;;;;5065228;28;19920;-69
2022/09/21 12:38:47;;;;;;;;;;;14.80;99.90;;;;;;5065542;28;19987;-69
2022/09/21 12:41:17;;;;;;;;;;;14.90;99.90;;;;;;5065424;28;19921;-68
2022/09/21 12:43:46;;;;;;;;;;;15.20;99.90;;;;;;5065621;28;20195;-69
2022/09/21 12:46:16;;;;;;;;;;;15.50;99.90;;;;;;5064922;28;19987;-69
2022/09/21 12:48:44;;;;;;;;;;;16.00;99.90;;;;;;5065176;28;20001;-69
2022/09/21 12:51:14;;;;;;;;;;;16.30;99.90;;;;;;5065175;28;19952;-69
2022/09/21 12:53:47;;;;;;;;;;;16.50;99.90;;;;;;5064930;28;19921;-69
2022/09/21 12:56:21;;;;;;;;;;;16.80;99.90;;;;;;5065035;28;19966;-69
2022/09/21 12:58:58;;;;;;;;;;;17.00;99.90;;;;;;5065146;28;19921;-69
2022/09/21 13:01:29;;;;;;;;;;;17.20;99.90;;;;;;5064208;28;19933;-68
2022/09/21 13:04:03;;;;;;;;;;;17.40;99.90;;;;;;5063995;28;19920;-69
2022/09/21 13:06:41;;;;;;;;;;;17.50;99.90;;;;;;5064729;28;19927;-69
2022/09/21 13:09:11;;;;;;;;;;;17.50;99.90;;;;;;5064970;28;19935;-70
2022/09/21 13:11:49;;;;;;;;;;;17.60;99.90;;;;;;5064624;28;19944;-69
2022/09/21 13:14:17;;;;;;;;;;;17.60;99.90;;;;;;5065118;28;20200;-69
2022/09/21 13:16:43;;;;;;;;;;;17.60;99.90;;;;;;5064365;28;19920;-69
2022/09/21 13:19:17;;;;;;;;;;;17.40;99.90;;;;;;5064550;28;20008;-69
2022/09/21 13:21:44;;;;;;;;;;;17.00;99.90;;;;;;5064890;28;19921;-69
2022/09/21 13:24:25;;;;;;;;;;;16.70;99.90;;;;;;5064327;28;19922;-69
2022/09/21 13:26:53;;;;;;;;;;;16.40;99.90;;;;;;5063848;28;19991;-69
2022/09/21 13:29:28;;;;;;;;;;;16.40;99.90;;;;;;5064421;28;19921;-68
2022/09/21 13:31:56;;;;;;;;;;;16.60;99.90;;;;;;5064813;28;19983;-69
2022/09/21 13:34:24;;;;;;;;;;;16.90;99.90;;;;;;5064395;28;19921;-69
2022/09/21 13:37:10;;;;;;;;;;;17.30;99.90;;;;;;5064223;28;19987;-69
2022/09/21 13:39:42;;;;;;;;;;;17.60;99.90;;;;;;5044459;28;19957;-69
2022/09/21 13:42:24;;;;;;;;;;;17.90;99.90;;;;;;5063867;28;19927;-69
2022/09/21 13:44:50;;;;;;;;;;;18.10;99.90;;;;;;5063017;28;20131;-71
2022/09/21 13:47:27;;;;;;;;;;;18.10;99.90;;;;;;5063620;28;19992;-69
2022/09/21 13:49:54;;;;;;;;;;;18.00;99.90;;;;;;5057004;28;20101;-69
2022/09/21 13:52:25;;;;;;;;;;;18.10;99.90;;;;;;5061109;28;19921;-69
2022/09/21 13:54:54;;;;;;;;;;;18.10;99.90;;;;;;5061444;28;19921;-71
2022/09/21 13:57:24;;;;;;;;;;;17.80;99.90;;;;;;5063195;28;20124;-70
2022/09/21 14:00:01;;;;;;;;;;;17.70;99.90;;;;;;5063888;28;19921;-70
2022/09/21 14:02:31;;;;;;;;;;;17.70;99.90;;;;;;5063422;28;20015;-70
2022/09/21 14:05:01;;;;;;;;;;;17.70;99.90;;;;;;5063483;28;19936;-69
2022/09/21 14:07:28;;;;;;;;;;;17.70;99.90;;;;;;5064093;28;20140;-70
2022/09/21 14:10:01;;;;;;;;;;;17.70;99.90;;;;;;5063823;28;19921;-69
2022/09/21 14:12:33;;;;;;;;;;;17.80;99.90;;;;;;5058122;28;19928;-69
2022/09/21 14:15:11;;;;;;;;;;;17.70;99.90;;;;;;5061697;28;19920;-70
2022/09/21 14:17:39;;;;;;;;;;;17.40;99.90;;;;;;5063119;28;19921;-70
2022/09/21 14:20:24;;;;;;;;;;;17.30;99.90;;;;;;5054149;28;19960;-72
2022/09/21 14:23:10;;;;;;;;;;;17.20;99.90;;;;;;5044101;28;19921;-69
2022/09/21 14:25:52;;;;;;;;;;;17.40;99.90;;;;;;5043347;28;20343;-70
2022/09/21 14:28:22;;;;;;;;;;;17.60;99.90;;;;;;5053308;28;19927;-70
2022/09/21 14:30:55;;;;;;;;;;;17.50;99.90;;;;;;5062945;28;19925;-70
2022/09/21 14:33:26;;;;;;;;;;;17.40;99.90;;;;;;5063683;28;19931;-69
2022/09/21 14:35:52;;;;;;;;;;;17.40;99.90;;;;;;5063365;28;19943;-69
2022/09/21 14:38:21;;;;;;;;;;;17.40;99.90;;;;;;5063656;28;19927;-69
2022/09/21 14:40:49;;;;;;;;;;;17.50;99.90;;;;;;5063353;28;19921;-70
2022/09/21 14:43:19;;;;;;;;;;;17.50;99.90;;;;;;5063634;28;20120;-70
2022/09/21 14:45:56;;;;;;;;;;;17.40;99.90;;;;;;5063288;28;20196;-69